Terminal Aerodrome Forecast
Issued by NWS Austin/San Antonio, TX

Home | Current Version | Previous Version | Text Only | Print | Product List | Glossary On
Versions: 1 2 3 4 5 6 7 8 9 10 11 12 13 14 15 16 17 18 19 20 21 22 23 24 25 26 27 28 29 30 31 32 33 34 35
000
FTUS44 KEWX 280959 AAB
TAFAUS
TAF AMD
KAUS 280959Z 2810/2912 VRB02KT 2SM BR OVC003
     FM281500 20007KT 6SM BR OVC015
     FM281700 17008KT P6SM BKN040
     FM290300 13005KT P6SM OVC015
     FM290800 16006KT 5SM BR OVC007=

USA.gov is the U.S. government's official web portal to all federal, state and local government web resources and services.